VKG516 ESSA-LTAI
Flight info
| Callsign | VKG516 |
|---|---|
| Flight time | N/A |
| Altitude | 35000 |
| Route | BABAP P156 NEKLA DCT RASEL Y40 LITPA DCT ORZIK DCT BOKSU M857 GERVI Z179 KEFIR DCT KENIN DCT KARIL DCT IXORI DCT BIVBU DCT VAMON DCT UPAMA DCT ADORU UN739 EKI UL606 CRD UL854 KOZLU |
| Aircraft | A321/M-SDE3FGHIRWY/LB1 |
Departure
| Time | N/A |
|---|---|
| Airport | Stockholm-Arlanda Airport (ESSA) |
Arrival
| Time | 2026-05-03 20:23 |
|---|---|
| Airport | Antalya International Airport (LTAI) |
| Time | Latitude | Longitude | Altitude | Speed | Heading |
|---|---|---|---|---|---|
| 2026-05-03 20:15 | 36.87636 | 30.67194 | 8245 ft | 256 kts | 187° |
| 2026-05-03 20:15 | 36.85859 | 30.67049 | 7885 ft | 255 kts | 187° |
| 2026-05-03 20:15 | 36.84093 | 30.66905 | 7580 ft | 254 kts | 187° |
| 2026-05-03 20:15 | 36.82338 | 30.66763 | 7230 ft | 253 kts | 187° |
| 2026-05-03 20:16 | 36.80585 | 30.66620 | 6892 ft | 252 kts | 187° |
| 2026-05-03 20:16 | 36.78838 | 30.66474 | 6587 ft | 250 kts | 187° |
| 2026-05-03 20:16 | 36.77108 | 30.66329 | 6274 ft | 249 kts | 187° |
| 2026-05-03 20:16 | 36.75401 | 30.66277 | 5878 ft | 242 kts | 175° |
| 2026-05-03 20:17 | 36.73805 | 30.66851 | 5498 ft | 232 kts | 154° |
| 2026-05-03 20:17 | 36.72536 | 30.67986 | 5177 ft | 219 kts | 134° |
| 2026-05-03 20:17 | 36.71669 | 30.69478 | 4899 ft | 210 kts | 115° |
| 2026-05-03 20:17 | 36.71214 | 30.71169 | 4577 ft | 204 kts | 96° |
| 2026-05-03 20:18 | 36.71066 | 30.72910 | 4251 ft | 200 kts | 89° |
| 2026-05-03 20:18 | 36.71279 | 30.74572 | 3859 ft | 191 kts | 63° |
| 2026-05-03 20:18 | 36.71987 | 30.75924 | 3483 ft | 184 kts | 40° |
| 2026-05-03 20:18 | 36.73011 | 30.76776 | 3229 ft | 172 kts | 19° |
| 2026-05-03 20:19 | 36.74137 | 30.77094 | 3014 ft | 163 kts | 5° |
| 2026-05-03 20:19 | 36.75241 | 30.77244 | 2797 ft | 157 kts | 5° |
| 2026-05-03 20:19 | 36.76314 | 30.77391 | 2585 ft | 155 kts | 5° |
| 2026-05-03 20:19 | 36.77378 | 30.77536 | 2379 ft | 153 kts | 5° |
| 2026-05-03 20:20 | 36.78078 | 30.77632 | 2248 ft | 152 kts | 6° |
| 2026-05-03 20:20 | 36.79476 | 30.77823 | 1972 ft | 151 kts | 6° |
| 2026-05-03 20:20 | 36.80162 | 30.77916 | 1834 ft | 148 kts | 6° |
| 2026-05-03 20:20 | 36.81180 | 30.78055 | 1652 ft | 148 kts | 7° |
| 2026-05-03 20:21 | 36.82176 | 30.78192 | 1442 ft | 140 kts | 6° |
| 2026-05-03 20:21 | 36.83159 | 30.78326 | 1242 ft | 140 kts | 5° |
| 2026-05-03 20:21 | 36.84117 | 30.78457 | 1061 ft | 138 kts | 5° |
| 2026-05-03 20:21 | 36.85067 | 30.78600 | 876 ft | 138 kts | 4° |
| 2026-05-03 20:22 | 36.86017 | 30.78724 | 689 ft | 140 kts | 3° |
| 2026-05-03 20:22 | 36.86981 | 30.78859 | 524 ft | 138 kts | 3° |
| 2026-05-03 20:22 | 36.87932 | 30.78988 | 342 ft | 136 kts | 1° |
| 2026-05-03 20:22 | 36.88866 | 30.79112 | 208 ft | 132 kts | 2° |
| 2026-05-03 20:23 | 36.89634 | 30.79217 | 189 ft | 82 kts | 6° |
| 2026-05-03 20:23 | 36.90040 | 30.79272 | 190 ft | 39 kts | 6° |
| 2026-05-03 20:23 | 36.90269 | 30.79316 | 189 ft | 23 kts | 21° |
| 2026-05-03 20:23 | 36.90398 | 30.79416 | 194 ft | 20 kts | 36° |
| 2026-05-03 20:24 | 36.90458 | 30.79471 | 201 ft | 4 kts | 37° |
| 2026-05-03 20:24 | 36.90472 | 30.79484 | 201 ft | 2 kts | 37° |
| 2026-05-03 20:24 | 36.90480 | 30.79491 | 202 ft | 1 kts | 37° |
| 2026-05-03 20:24 | 36.90481 | 30.79493 | 203 ft | 0 kts | 37° |
| 2026-05-03 20:25 | 36.90498 | 30.79522 | 199 ft | 6 kts | 76° |
| 2026-05-03 20:25 | 36.90498 | 30.79525 | 198 ft | 0 kts | 87° |
| 2026-05-03 20:25 | 36.90484 | 30.79546 | 202 ft | 9 kts | 142° |
| 2026-05-03 20:25 | 36.90397 | 30.79540 | 197 ft | 15 kts | 186° |
| 2026-05-03 20:26 | 36.90298 | 30.79527 | 193 ft | 14 kts | 186° |
| 2026-05-03 20:26 | 36.90209 | 30.79515 | 202 ft | 12 kts | 186° |
| 2026-05-03 20:26 | 36.90133 | 30.79505 | 199 ft | 10 kts | 186° |
| 2026-05-03 20:26 | 36.90066 | 30.79497 | 197 ft | 9 kts | 186° |
| 2026-05-03 20:27 | 36.89996 | 30.79484 | 196 ft | 14 kts | 187° |
| 2026-05-03 20:27 | 36.89884 | 30.79469 | 202 ft | 16 kts | 186° |
| 2026-05-03 20:27 | 36.89777 | 30.79455 | 199 ft | 15 kts | 186° |
| 2026-05-03 20:27 | 36.89686 | 30.79447 | 200 ft | 10 kts | 171° |
| 2026-05-03 20:28 | 36.89659 | 30.79532 | 192 ft | 16 kts | 95° |
| 2026-05-03 20:28 | 36.89647 | 30.79677 | 195 ft | 16 kts | 97° |
| 2026-05-03 20:28 | 36.89634 | 30.79813 | 205 ft | 15 kts | 96° |
| 2026-05-03 20:28 | 36.89623 | 30.79942 | 192 ft | 15 kts | 96° |
| 2026-05-03 20:29 | 36.89611 | 30.80070 | 192 ft | 14 kts | 96° |
| 2026-05-03 20:29 | 36.89602 | 30.80180 | 192 ft | 10 kts | 96° |
| 2026-05-03 20:29 | 36.89595 | 30.80254 | 202 ft | 1 kts | 96° |
| 2026-05-03 20:29 | 36.89594 | 30.80274 | 196 ft | 4 kts | 95° |
| 2026-05-03 20:30 | 36.89588 | 30.80339 | 202 ft | 12 kts | 97° |
| 2026-05-03 20:30 | 36.89578 | 30.80438 | 203 ft | 11 kts | 97° |
| 2026-05-03 20:30 | 36.89576 | 30.80527 | 192 ft | 9 kts | 70° |
| 2026-05-03 20:30 | 36.89615 | 30.80551 | 199 ft | 2 kts | 354° |
| 2026-05-03 20:31 | 36.89628 | 30.80524 | 195 ft | 5 kts | 286° |
| 2026-05-03 20:31 | 36.89633 | 30.80483 | 200 ft | 3 kts | 276° |
| 2026-05-03 20:31 | 36.89634 | 30.80482 | 203 ft | 0 kts | 276° |